sensor_id;sensor_type;location;lat;lon;timestamp;temperature;humidity
2729;DHT22;1372;47.956;7.830;2022-07-29T00:02:05;18.90;99.90
2729;DHT22;1372;47.956;7.830;2022-07-29T00:04:38;18.80;99.90
2729;DHT22;1372;47.956;7.830;2022-07-29T00:07:07;18.80;99.90
2729;DHT22;1372;47.956;7.830;2022-07-29T00:09:35;18.80;99.90
2729;DHT22;1372;47.956;7.830;2022-07-29T00:12:08;18.90;99.90
2729;DHT22;1372;47.956;7.830;2022-07-29T00:14:36;18.70;99.90
2729;DHT22;1372;47.956;7.830;2022-07-29T00:17:05;18.70;99.90
2729;DHT22;1372;47.956;7.830;2022-07-29T00:19:34;18.60;99.90
2729;DHT22;1372;47.956;7.830;2022-07-29T00:22:06;18.60;99.90
2729;DHT22;1372;47.956;7.830;2022-07-29T00:24:35;18.60;99.90
2729;DHT22;1372;47.956;7.830;2022-07-29T00:27:24;18.60;99.90
2729;DHT22;1372;47.956;7.830;2022-07-29T00:29:55;18.50;99.90
2729;DHT22;1372;47.956;7.830;2022-07-29T00:32:23;18.50;99.90
2729;DHT22;1372;47.956;7.830;2022-07-29T00:34:52;18.40;99.90
2729;DHT22;1372;47.956;7.830;2022-07-29T00:37:39;18.30;99.90
2729;DHT22;1372;47.956;7.830;2022-07-29T00:40:09;18.40;99.90
2729;DHT22;1372;47.956;7.830;2022-07-29T00:42:42;18.40;99.90
2729;DHT22;1372;47.956;7.830;2022-07-29T00:45:12;18.40;99.90
2729;DHT22;1372;47.956;7.830;2022-07-29T00:47:41;18.40;99.90
2729;DHT22;1372;47.956;7.830;2022-07-29T00:50:11;18.40;99.90
2729;DHT22;1372;47.956;7.830;2022-07-29T00:52:43;18.30;99.90
2729;DHT22;1372;47.956;7.830;2022-07-29T00:55:32;18.30;99.90
2729;DHT22;1372;47.956;7.830;2022-07-29T00:58:03;18.30;99.90
2729;DHT22;1372;47.956;7.830;2022-07-29T01:00:34;18.20;99.90
2729;DHT22;1372;47.956;7.830;2022-07-29T01:03:05;18.20;99.90
2729;DHT22;1372;47.956;7.830;2022-07-29T01:05:54;18.20;99.90
2729;DHT22;1372;47.956;7.830;2022-07-29T01:08:25;18.20;99.90
2729;DHT22;1372;47.956;7.830;2022-07-29T01:11:14;18.20;99.90
2729;DHT22;1372;47.956;7.830;2022-07-29T01:13:44;18.20;99.90
2729;DHT22;1372;47.956;7.830;2022-07-29T01:16:38;18.30;99.90
2729;DHT22;1372;47.956;7.830;2022-07-29T01:19:30;18.20;99.90
2729;DHT22;1372;47.956;7.830;2022-07-29T01:22:19;18.20;99.90
2729;DHT22;1372;47.956;7.830;2022-07-29T01:25:24;18.30;99.90
2729;DHT22;1372;47.956;7.830;2022-07-29T01:28:30;18.20;99.90
2729;DHT22;1372;47.956;7.830;2022-07-29T01:31:22;18.00;99.90
2729;DHT22;1372;47.956;7.830;2022-07-29T01:34:18;18.00;99.90
2729;DHT22;1372;47.956;7.830;2022-07-29T01:36:57;18.10;99.90
2729;DHT22;1372;47.956;7.830;2022-07-29T01:39:35;18.10;99.90
2729;DHT22;1372;47.956;7.830;2022-07-29T01:42:10;18.00;99.90
2729;DHT22;1372;47.956;7.830;2022-07-29T01:44:52;18.00;99.90
2729;DHT22;1372;47.956;7.830;2022-07-29T01:47:49;18.00;99.90
2729;DHT22;1372;47.956;7.830;2022-07-29T01:50:30;18.00;99.90
2729;DHT22;1372;47.956;7.830;2022-07-29T01:53:04;18.00;99.90
2729;DHT22;1372;47.956;7.830;2022-07-29T01:55:55;18.00;99.90
2729;DHT22;1372;47.956;7.830;2022-07-29T01:58:28;18.10;99.90
2729;DHT22;1372;47.956;7.830;2022-07-29T02:01:01;18.00;99.90
2729;DHT22;1372;47.956;7.830;2022-07-29T02:03:31;17.90;99.90
2729;DHT22;1372;47.956;7.830;2022-07-29T02:06:02;17.90;99.90
2729;DHT22;1372;47.956;7.830;2022-07-29T02:08:33;17.90;99.90
2729;DHT22;1372;47.956;7.830;2022-07-29T02:11:04;17.90;99.90
2729;DHT22;1372;47.956;7.830;2022-07-29T02:13:55;17.90;99.90
2729;DHT22;1372;47.956;7.830;2022-07-29T02:16:27;17.90;99.90
2729;DHT22;1372;47.956;7.830;2022-07-29T02:19:17;17.90;99.90
2729;DHT22;1372;47.956;7.830;2022-07-29T02:21:47;17.90;99.90
2729;DHT22;1372;47.956;7.830;2022-07-29T02:24:17;17.80;99.90
2729;DHT22;1372;47.956;7.830;2022-07-29T02:26:47;17.90;99.90
2729;DHT22;1372;47.956;7.830;2022-07-29T02:29:22;17.90;99.90
2729;DHT22;1372;47.956;7.830;2022-07-29T02:31:54;17.80;99.90
2729;DHT22;1372;47.956;7.830;2022-07-29T02:34:23;17.70;99.90
2729;DHT22;1372;47.956;7.830;2022-07-29T02:36:54;17.70;99.90
2729;DHT22;1372;47.956;7.830;2022-07-29T02:39:26;17.80;99.90
2729;DHT22;1372;47.956;7.830;2022-07-29T02:42:01;17.70;99.90
2729;DHT22;1372;47.956;7.830;2022-07-29T02:44:52;17.70;99.90
2729;DHT22;1372;47.956;7.830;2022-07-29T02:47:27;17.70;99.90
2729;DHT22;1372;47.956;7.830;2022-07-29T02:50:12;17.70;99.90
2729;DHT22;1372;47.956;7.830;2022-07-29T02:52:44;17.60;99.90
2729;DHT22;1372;47.956;7.830;2022-07-29T02:55:21;17.70;99.90
2729;DHT22;1372;47.956;7.830;2022-07-29T02:57:58;17.70;99.90
2729;DHT22;1372;47.956;7.830;2022-07-29T03:00:31;17.70;99.90
2729;DHT22;1372;47.956;7.830;2022-07-29T03:03:08;17.70;99.90
2729;DHT22;1372;47.956;7.830;2022-07-29T03:05:41;17.70;99.90
2729;DHT22;1372;47.956;7.830;2022-07-29T03:08:11;17.60;99.90
2729;DHT22;1372;47.956;7.830;2022-07-29T03:10:43;17.60;99.90
2729;DHT22;1372;47.956;7.830;2022-07-29T03:13:31;17.50;99.90
2729;DHT22;1372;47.956;7.830;2022-07-29T03:16:03;17.40;99.90
2729;DHT22;1372;47.956;7.830;2022-07-29T03:18:34;17.40;99.90
2729;DHT22;1372;47.956;7.830;2022-07-29T03:21:03;17.40;99.90
2729;DHT22;1372;47.956;7.830;2022-07-29T03:23:33;17.40;99.90
2729;DHT22;1372;47.956;7.830;2022-07-29T03:26:03;17.40;99.90
2729;DHT22;1372;47.956;7.830;2022-07-29T03:28:51;17.30;99.90
2729;DHT22;1372;47.956;7.830;2022-07-29T03:31:22;17.50;99.90
2729;DHT22;1372;47.956;7.830;2022-07-29T03:34:10;17.40;99.90
2729;DHT22;1372;47.956;7.830;2022-07-29T03:36:39;17.40;99.90
2729;DHT22;1372;47.956;7.830;2022-07-29T03:39:09;17.40;99.90
2729;DHT22;1372;47.956;7.830;2022-07-29T03:41:39;17.30;99.90
2729;DHT22;1372;47.956;7.830;2022-07-29T03:44:10;17.30;99.90
2729;DHT22;1372;47.956;7.830;2022-07-29T03:46:41;17.20;99.90
2729;DHT22;1372;47.956;7.830;2022-07-29T03:49:15;17.20;99.90
2729;DHT22;1372;47.956;7.830;2022-07-29T03:51:46;17.10;99.90
2729;DHT22;1372;47.956;7.830;2022-07-29T03:54:15;17.10;99.90
2729;DHT22;1372;47.956;7.830;2022-07-29T03:56:45;17.20;99.90
2729;DHT22;1372;47.956;7.830;2022-07-29T03:59:15;17.10;99.90
2729;DHT22;1372;47.956;7.830;2022-07-29T04:01:46;17.10;99.90
2729;DHT22;1372;47.956;7.830;2022-07-29T04:04:17;17.10;99.90
2729;DHT22;1372;47.956;7.830;2022-07-29T04:06:46;17.20;99.90
2729;DHT22;1372;47.956;7.830;2022-07-29T04:09:15;17.10;99.90
2729;DHT22;1372;47.956;7.830;2022-07-29T04:11:47;17.20;99.90
2729;DHT22;1372;47.956;7.830;2022-07-29T04:14:23;17.10;99.90
2729;DHT22;1372;47.956;7.830;2022-07-29T04:16:52;17.10;99.90
2729;DHT22;1372;47.956;7.830;2022-07-29T04:19:24;17.20;99.90
2729;DHT22;1372;47.956;7.830;2022-07-29T04:21:53;17.20;99.90
2729;DHT22;1372;47.956;7.830;2022-07-29T04:24:22;17.20;99.90
2729;DHT22;1372;47.956;7.830;2022-07-29T04:26:51;17.20;99.90
2729;DHT22;1372;47.956;7.830;2022-07-29T04:29:22;17.20;99.90
2729;DHT22;1372;47.956;7.830;2022-07-29T04:31:50;17.30;99.90
2729;DHT22;1372;47.956;7.830;2022-07-29T04:34:19;17.30;99.90
2729;DHT22;1372;47.956;7.830;2022-07-29T04:36:49;17.30;99.90
2729;DHT22;1372;47.956;7.830;2022-07-29T04:39:18;17.20;99.90
2729;DHT22;1372;47.956;7.830;2022-07-29T04:41:49;17.30;99.90
2729;DHT22;1372;47.956;7.830;2022-07-29T04:44:21;17.30;99.90
2729;DHT22;1372;47.956;7.830;2022-07-29T04:46:56;17.30;99.90
2729;DHT22;1372;47.956;7.830;2022-07-29T04:49:25;17.30;99.90
2729;DHT22;1372;47.956;7.830;2022-07-29T04:51:56;17.30;99.90
2729;DHT22;1372;47.956;7.830;2022-07-29T04:54:25;17.40;99.90
2729;DHT22;1372;47.956;7.830;2022-07-29T04:56:53;17.40;99.90
2729;DHT22;1372;47.956;7.830;2022-07-29T04:59:22;17.50;99.90
2729;DHT22;1372;47.956;7.830;2022-07-29T05:02:07;17.50;99.90
2729;DHT22;1372;47.956;7.830;2022-07-29T05:04:38;17.60;99.90
2729;DHT22;1372;47.956;7.830;2022-07-29T05:07:08;17.60;99.90
2729;DHT22;1372;47.956;7.830;2022-07-29T05:09:36;17.70;99.90
2729;DHT22;1372;47.956;7.830;2022-07-29T05:12:06;17.70;99.90
2729;DHT22;1372;47.956;7.830;2022-07-29T05:14:37;17.70;99.90
2729;DHT22;1372;47.956;7.830;2022-07-29T05:17:07;17.70;99.90
2729;DHT22;1372;47.956;7.830;2022-07-29T05:19:35;17.80;99.90
2729;DHT22;1372;47.956;7.830;2022-07-29T05:22:07;17.80;99.90
2729;DHT22;1372;47.956;7.830;2022-07-29T05:24:36;17.90;99.90
2729;DHT22;1372;47.956;7.830;2022-07-29T05:27:04;18.00;99.90
2729;DHT22;1372;47.956;7.830;2022-07-29T05:29:36;18.00;99.90
2729;DHT22;1372;47.956;7.830;2022-07-29T05:32:07;18.10;99.90
2729;DHT22;1372;47.956;7.830;2022-07-29T05:34:51;18.10;99.90
2729;DHT22;1372;47.956;7.830;2022-07-29T05:37:21;18.20;99.90
2729;DHT22;1372;47.956;7.830;2022-07-29T05:39:50;18.30;99.90
2729;DHT22;1372;47.956;7.830;2022-07-29T05:42:23;18.40;99.90
2729;DHT22;1372;47.956;7.830;2022-07-29T05:45:12;18.40;99.90
2729;DHT22;1372;47.956;7.830;2022-07-29T05:47:41;18.50;99.90
2729;DHT22;1372;47.956;7.830;2022-07-29T05:50:09;18.60;99.90
2729;DHT22;1372;47.956;7.830;2022-07-29T05:52:40;18.70;99.90
2729;DHT22;1372;47.956;7.830;2022-07-29T05:55:10;18.70;99.90
2729;DHT22;1372;47.956;7.830;2022-07-29T05:57:42;18.70;99.90
2729;DHT22;1372;47.956;7.830;2022-07-29T06:00:12;18.80;99.90
2729;DHT22;1372;47.956;7.830;2022-07-29T06:02:42;18.80;99.90
2729;DHT22;1372;47.956;7.830;2022-07-29T06:05:11;18.80;99.90
2729;DHT22;1372;47.956;7.830;2022-07-29T06:07:44;18.90;99.90
2729;DHT22;1372;47.956;7.830;2022-07-29T06:10:35;19.10;99.90
2729;DHT22;1372;47.956;7.830;2022-07-29T06:13:08;19.20;99.90
2729;DHT22;1372;47.956;7.830;2022-07-29T06:15:36;19.30;99.90
2729;DHT22;1372;47.956;7.830;2022-07-29T06:18:05;19.50;99.90
2729;DHT22;1372;47.956;7.830;2022-07-29T06:20:36;19.70;99.90
2729;DHT22;1372;47.956;7.830;2022-07-29T06:23:07;19.90;99.90
2729;DHT22;1372;47.956;7.830;2022-07-29T06:25:37;20.20;99.90
2729;DHT22;1372;47.956;7.830;2022-07-29T06:28:10;20.30;99.90
2729;DHT22;1372;47.956;7.830;2022-07-29T06:30:41;20.50;99.90
2729;DHT22;1372;47.956;7.830;2022-07-29T06:33:16;20.60;99.90
2729;DHT22;1372;47.956;7.830;2022-07-29T06:35:46;20.70;99.90
2729;DHT22;1372;47.956;7.830;2022-07-29T06:38:21;20.80;99.90
2729;DHT22;1372;47.956;7.830;2022-07-29T06:40:59;20.80;99.90
2729;DHT22;1372;47.956;7.830;2022-07-29T06:43:33;20.90;99.90
2729;DHT22;1372;47.956;7.830;2022-07-29T06:46:11;21.00;99.90
2729;DHT22;1372;47.956;7.830;2022-07-29T06:48:41;21.10;99.90
2729;DHT22;1372;47.956;7.830;2022-07-29T06:51:11;21.10;99.90
2729;DHT22;1372;47.956;7.830;2022-07-29T06:53:41;21.10;99.90
2729;DHT22;1372;47.956;7.830;2022-07-29T06:56:25;21.20;99.90
2729;DHT22;1372;47.956;7.830;2022-07-29T06:58:54;21.20;99.90
2729;DHT22;1372;47.956;7.830;2022-07-29T07:01:25;21.30;99.90
2729;DHT22;1372;47.956;7.830;2022-07-29T07:03:54;21.30;99.90
2729;DHT22;1372;47.956;7.830;2022-07-29T07:06:23;21.30;99.90
2729;DHT22;1372;47.956;7.830;2022-07-29T07:08:55;21.20;99.90
2729;DHT22;1372;47.956;7.830;2022-07-29T07:11:27;21.20;99.90
2729;DHT22;1372;47.956;7.830;2022-07-29T07:13:56;21.20;99.90
2729;DHT22;1372;47.956;7.830;2022-07-29T07:16:49;21.20;99.90
2729;DHT22;1372;47.956;7.830;2022-07-29T07:19:38;21.20;99.90
2729;DHT22;1372;47.956;7.830;2022-07-29T07:22:07;21.20;99.90
2729;DHT22;1372;47.956;7.830;2022-07-29T07:24:38;21.20;99.90
2729;DHT22;1372;47.956;7.830;2022-07-29T07:27:06;21.20;99.90
2729;DHT22;1372;47.956;7.830;2022-07-29T07:29:55;21.30;99.90
2729;DHT22;1372;47.956;7.830;2022-07-29T07:32:24;21.40;99.90
2729;DHT22;1372;47.956;7.830;2022-07-29T07:34:53;21.40;99.90
2729;DHT22;1372;47.956;7.830;2022-07-29T07:37:22;21.40;99.90
2729;DHT22;1372;47.956;7.830;2022-07-29T07:39:53;21.50;99.90
2729;DHT22;1372;47.956;7.830;2022-07-29T07:42:24;21.50;99.90
2729;DHT22;1372;47.956;7.830;2022-07-29T07:44:53;21.60;99.90
2729;DHT22;1372;47.956;7.830;2022-07-29T07:47:39;21.60;99.90
2729;DHT22;1372;47.956;7.830;2022-07-29T07:50:10;21.70;99.90
2729;DHT22;1372;47.956;7.830;2022-07-29T07:52:49;21.70;99.90
2729;DHT22;1372;47.956;7.830;2022-07-29T07:55:20;21.70;99.90
2729;DHT22;1372;47.956;7.830;2022-07-29T07:58:04;21.70;99.90
2729;DHT22;1372;47.956;7.830;2022-07-29T08:00:33;21.70;99.90
2729;DHT22;1372;47.956;7.830;2022-07-29T08:03:22;21.70;99.90
2729;DHT22;1372;47.956;7.830;2022-07-29T08:06:10;21.80;99.90
2729;DHT22;1372;47.956;7.830;2022-07-29T08:08:58;21.80;99.90
2729;DHT22;1372;47.956;7.830;2022-07-29T08:11:49;21.90;99.90
2729;DHT22;1372;47.956;7.830;2022-07-29T08:14:18;21.90;99.90
2729;DHT22;1372;47.956;7.830;2022-07-29T08:16:48;22.00;99.90
2729;DHT22;1372;47.956;7.830;2022-07-29T08:19:19;22.00;99.90
2729;DHT22;1372;47.956;7.830;2022-07-29T08:22:07;22.10;99.90
2729;DHT22;1372;47.956;7.830;2022-07-29T08:24:36;22.20;99.90
2729;DHT22;1372;47.956;7.830;2022-07-29T08:27:13;22.30;99.90
2729;DHT22;1372;47.956;7.830;2022-07-29T08:30:02;22.40;99.90
2729;DHT22;1372;47.956;7.830;2022-07-29T08:32:31;22.40;99.90
2729;DHT22;1372;47.956;7.830;2022-07-29T08:35:20;22.50;99.90
2729;DHT22;1372;47.956;7.830;2022-07-29T08:37:49;22.50;99.90
2729;DHT22;1372;47.956;7.830;2022-07-29T08:40:21;22.60;99.90
2729;DHT22;1372;47.956;7.830;2022-07-29T08:42:58;22.60;99.90
2729;DHT22;1372;47.956;7.830;2022-07-29T08:45:42;22.70;99.90
2729;DHT22;1372;47.956;7.830;2022-07-29T08:48:16;22.80;99.90
2729;DHT22;1372;47.956;7.830;2022-07-29T08:50:47;22.80;99.90
2729;DHT22;1372;47.956;7.830;2022-07-29T08:53:17;22.80;99.90
2729;DHT22;1372;47.956;7.830;2022-07-29T08:55:49;22.90;99.90
2729;DHT22;1372;47.956;7.830;2022-07-29T08:58:20;22.90;99.90
2729;DHT22;1372;47.956;7.830;2022-07-29T09:00:52;23.00;99.90
2729;DHT22;1372;47.956;7.830;2022-07-29T09:03:25;23.00;99.90
2729;DHT22;1372;47.956;7.830;2022-07-29T09:05:58;23.00;99.90
2729;DHT22;1372;47.956;7.830;2022-07-29T09:08:30;23.00;99.90
2729;DHT22;1372;47.956;7.830;2022-07-29T09:11:01;23.10;99.90
2729;DHT22;1372;47.956;7.830;2022-07-29T09:13:36;23.10;99.90
2729;DHT22;1372;47.956;7.830;2022-07-29T09:16:05;23.10;99.90
2729;DHT22;1372;47.956;7.830;2022-07-29T09:18:37;23.10;99.90
2729;DHT22;1372;47.956;7.830;2022-07-29T09:21:08;23.10;99.90
2729;DHT22;1372;47.956;7.830;2022-07-29T09:24:05;23.10;99.90
2729;DHT22;1372;47.956;7.830;2022-07-29T09:26:37;23.30;99.90
2729;DHT22;1372;47.956;7.830;2022-07-29T09:29:12;23.30;99.90
2729;DHT22;1372;47.956;7.830;2022-07-29T09:31:44;23.30;99.90
2729;DHT22;1372;47.956;7.830;2022-07-29T09:34:16;23.40;99.90
2729;DHT22;1372;47.956;7.830;2022-07-29T09:36:51;23.40;99.90
2729;DHT22;1372;47.956;7.830;2022-07-29T09:39:29;23.40;99.90
2729;DHT22;1372;47.956;7.830;2022-07-29T09:42:03;23.40;99.90
2729;DHT22;1372;47.956;7.830;2022-07-29T09:44:54;23.40;99.90
2729;DHT22;1372;47.956;7.830;2022-07-29T09:47:41;23.50;99.90
2729;DHT22;1372;47.956;7.830;2022-07-29T09:50:12;23.50;99.90
2729;DHT22;1372;47.956;7.830;2022-07-29T09:52:47;23.60;99.90
2729;DHT22;1372;47.956;7.830;2022-07-29T09:55:17;23.60;99.90
2729;DHT22;1372;47.956;7.830;2022-07-29T09:57:47;23.60;99.90
2729;DHT22;1372;47.956;7.830;2022-07-29T10:00:19;23.60;99.90
2729;DHT22;1372;47.956;7.830;2022-07-29T10:02:50;23.70;99.90
2729;DHT22;1372;47.956;7.830;2022-07-29T10:05:21;23.70;99.90
2729;DHT22;1372;47.956;7.830;2022-07-29T10:07:53;23.70;99.90
2729;DHT22;1372;47.956;7.830;2022-07-29T10:10:26;23.70;99.90
2729;DHT22;1372;47.956;7.830;2022-07-29T10:12:59;23.70;99.90
2729;DHT22;1372;47.956;7.830;2022-07-29T10:15:37;23.70;99.90
2729;DHT22;1372;47.956;7.830;2022-07-29T10:18:08;23.70;99.90
2729;DHT22;1372;47.956;7.830;2022-07-29T10:20:39;23.70;99.90
2729;DHT22;1372;47.956;7.830;2022-07-29T10:23:09;23.70;99.90
2729;DHT22;1372;47.956;7.830;2022-07-29T10:25:37;23.80;99.90
2729;DHT22;1372;47.956;7.830;2022-07-29T10:28:12;23.90;99.90
2729;DHT22;1372;47.956;7.830;2022-07-29T10:30:45;23.90;99.90
2729;DHT22;1372;47.956;7.830;2022-07-29T10:33:21;23.90;99.90
2729;DHT22;1372;47.956;7.830;2022-07-29T10:36:07;24.00;99.90
2729;DHT22;1372;47.956;7.830;2022-07-29T10:38:47;24.00;99.90
2729;DHT22;1372;47.956;7.830;2022-07-29T10:41:43;24.00;99.90
2729;DHT22;1372;47.956;7.830;2022-07-29T10:44:20;24.10;99.90
2729;DHT22;1372;47.956;7.830;2022-07-29T10:46:51;24.10;99.90
2729;DHT22;1372;47.956;7.830;2022-07-29T10:49:25;24.10;99.90
2729;DHT22;1372;47.956;7.830;2022-07-29T10:52:00;24.20;99.90
2729;DHT22;1372;47.956;7.830;2022-07-29T10:54:41;24.20;99.90
2729;DHT22;1372;47.956;7.830;2022-07-29T10:57:25;24.20;99.90
2729;DHT22;1372;47.956;7.830;2022-07-29T11:00:30;24.30;99.90
2729;DHT22;1372;47.956;7.830;2022-07-29T11:03:02;24.40;99.90
2729;DHT22;1372;47.956;7.830;2022-07-29T11:05:54;24.40;99.90
2729;DHT22;1372;47.956;7.830;2022-07-29T11:08:26;24.40;99.90
2729;DHT22;1372;47.956;7.830;2022-07-29T11:14:07;24.40;99.90
2729;DHT22;1372;47.956;7.830;2022-07-29T11:17:01;24.40;99.90
2729;DHT22;1372;47.956;7.830;2022-07-29T11:23:21;24.40;99.90
2729;DHT22;1372;47.956;7.830;2022-07-29T11:26:19;24.30;99.90
2729;DHT22;1372;47.956;7.830;2022-07-29T11:28:57;24.30;99.90
2729;DHT22;1372;47.956;7.830;2022-07-29T11:31:35;24.30;99.90
2729;DHT22;1372;47.956;7.830;2022-07-29T11:34:23;24.30;99.90
2729;DHT22;1372;47.956;7.830;2022-07-29T11:37:17;24.30;99.90
2729;DHT22;1372;47.956;7.830;2022-07-29T11:40:20;24.30;99.90
2729;DHT22;1372;47.956;7.830;2022-07-29T11:42:50;24.30;99.90
2729;DHT22;1372;47.956;7.830;2022-07-29T11:45:24;24.20;99.90
2729;DHT22;1372;47.956;7.830;2022-07-29T11:48:30;24.20;99.90
2729;DHT22;1372;47.956;7.830;2022-07-29T11:50:59;24.30;99.90
2729;DHT22;1372;47.956;7.830;2022-07-29T11:53:33;24.30;99.90
2729;DHT22;1372;47.956;7.830;2022-07-29T11:56:04;24.20;99.90
2729;DHT22;1372;47.956;7.830;2022-07-29T11:58:36;24.20;99.90
2729;DHT22;1372;47.956;7.830;2022-07-29T12:01:13;24.20;99.90
2729;DHT22;1372;47.956;7.830;2022-07-29T12:03:42;24.30;99.90
2729;DHT22;1372;47.956;7.830;2022-07-29T12:06:12;24.30;99.90
2729;DHT22;1372;47.956;7.830;2022-07-29T12:08:48;24.30;99.90
2729;DHT22;1372;47.956;7.830;2022-07-29T12:11:19;24.20;99.90
2729;DHT22;1372;47.956;7.830;2022-07-29T12:13:50;24.30;99.90
2729;DHT22;1372;47.956;7.830;2022-07-29T12:16:19;24.30;99.90
2729;DHT22;1372;47.956;7.830;2022-07-29T12:18:57;24.30;99.90
2729;DHT22;1372;47.956;7.830;2022-07-29T12:21:26;24.30;99.90
2729;DHT22;1372;47.956;7.830;2022-07-29T12:24:17;24.40;99.90
2729;DHT22;1372;47.956;7.830;2022-07-29T12:26:50;24.40;99.90
2729;DHT22;1372;47.956;7.830;2022-07-29T12:29:19;24.40;99.90
2729;DHT22;1372;47.956;7.830;2022-07-29T12:32:01;24.40;99.90
2729;DHT22;1372;47.956;7.830;2022-07-29T12:34:31;24.40;99.90
2729;DHT22;1372;47.956;7.830;2022-07-29T12:37:01;24.40;99.90
2729;DHT22;1372;47.956;7.830;2022-07-29T12:39:34;24.40;99.90
2729;DHT22;1372;47.956;7.830;2022-07-29T12:42:24;24.50;99.90
2729;DHT22;1372;47.956;7.830;2022-07-29T12:44:53;24.50;99.90
2729;DHT22;1372;47.956;7.830;2022-07-29T12:47:51;24.50;99.90
2729;DHT22;1372;47.956;7.830;2022-07-29T12:50:20;24.50;99.90
2729;DHT22;1372;47.956;7.830;2022-07-29T12:52:53;24.50;99.90
2729;DHT22;1372;47.956;7.830;2022-07-29T12:55:56;24.50;99.90
2729;DHT22;1372;47.956;7.830;2022-07-29T12:58:36;24.50;99.90
2729;DHT22;1372;47.956;7.830;2022-07-29T13:01:09;24.50;99.90
2729;DHT22;1372;47.956;7.830;2022-07-29T13:03:48;24.40;99.90
2729;DHT22;1372;47.956;7.830;2022-07-29T13:06:38;24.40;99.90
2729;DHT22;1372;47.956;7.830;2022-07-29T13:09:09;24.40;99.90
2729;DHT22;1372;47.956;7.830;2022-07-29T13:11:43;24.40;99.90
2729;DHT22;1372;47.956;7.830;2022-07-29T13:14:30;24.40;99.90
2729;DHT22;1372;47.956;7.830;2022-07-29T13:17:01;24.50;99.90
2729;DHT22;1372;47.956;7.830;2022-07-29T13:19:36;24.40;99.90
2729;DHT22;1372;47.956;7.830;2022-07-29T13:22:08;24.40;99.90
2729;DHT22;1372;47.956;7.830;2022-07-29T13:24:50;24.40;99.90
2729;DHT22;1372;47.956;7.830;2022-07-29T13:27:24;24.40;99.90
2729;DHT22;1372;47.956;7.830;2022-07-29T13:29:54;24.40;99.90
2729;DHT22;1372;47.956;7.830;2022-07-29T13:32:25;24.40;99.90
2729;DHT22;1372;47.956;7.830;2022-07-29T13:34:57;24.40;99.90
2729;DHT22;1372;47.956;7.830;2022-07-29T13:37:27;24.40;99.90
2729;DHT22;1372;47.956;7.830;2022-07-29T13:39:57;24.40;99.90
2729;DHT22;1372;47.956;7.830;2022-07-29T13:42:28;24.40;99.90
2729;DHT22;1372;47.956;7.830;2022-07-29T13:44:57;24.50;99.90
2729;DHT22;1372;47.956;7.830;2022-07-29T13:47:30;24.50;99.90
2729;DHT22;1372;47.956;7.830;2022-07-29T13:50:02;24.50;99.90
2729;DHT22;1372;47.956;7.830;2022-07-29T13:52:33;24.60;99.90
2729;DHT22;1372;47.956;7.830;2022-07-29T13:55:03;24.60;99.90
2729;DHT22;1372;47.956;7.830;2022-07-29T13:57:37;24.60;99.90
2729;DHT22;1372;47.956;7.830;2022-07-29T14:00:07;24.60;99.90
2729;DHT22;1372;47.956;7.830;2022-07-29T14:02:39;24.60;99.90
2729;DHT22;1372;47.956;7.830;2022-07-29T14:05:27;24.60;99.90
2729;DHT22;1372;47.956;7.830;2022-07-29T14:07:56;24.60;99.90
2729;DHT22;1372;47.956;7.830;2022-07-29T14:10:26;24.50;99.90
2729;DHT22;1372;47.956;7.830;2022-07-29T14:12:57;24.50;99.90
2729;DHT22;1372;47.956;7.830;2022-07-29T14:15:28;24.40;99.90
2729;DHT22;1372;47.956;7.830;2022-07-29T14:17:59;24.40;99.90
2729;DHT22;1372;47.956;7.830;2022-07-29T14:20:28;24.30;99.90
2729;DHT22;1372;47.956;7.830;2022-07-29T14:23:00;24.30;99.90
2729;DHT22;1372;47.956;7.830;2022-07-29T14:25:30;24.30;99.90
2729;DHT22;1372;47.956;7.830;2022-07-29T14:28:01;24.20;99.90
2729;DHT22;1372;47.956;7.830;2022-07-29T14:30:30;24.20;99.90
2729;DHT22;1372;47.956;7.830;2022-07-29T14:33:18;24.20;99.90
2729;DHT22;1372;47.956;7.830;2022-07-29T14:35:47;24.20;99.90
2729;DHT22;1372;47.956;7.830;2022-07-29T14:38:16;24.20;99.90
2729;DHT22;1372;47.956;7.830;2022-07-29T14:40:45;24.20;99.90
2729;DHT22;1372;47.956;7.830;2022-07-29T14:43:16;24.20;99.90
2729;DHT22;1372;47.956;7.830;2022-07-29T14:45:45;24.20;99.90
2729;DHT22;1372;47.956;7.830;2022-07-29T14:48:15;24.30;99.90
2729;DHT22;1372;47.956;7.830;2022-07-29T14:50:45;24.30;99.90
2729;DHT22;1372;47.956;7.830;2022-07-29T14:53:16;24.30;99.90
2729;DHT22;1372;47.956;7.830;2022-07-29T14:55:45;24.40;99.90
2729;DHT22;1372;47.956;7.830;2022-07-29T14:58:15;24.40;99.90
2729;DHT22;1372;47.956;7.830;2022-07-29T15:00:44;24.50;99.90
2729;DHT22;1372;47.956;7.830;2022-07-29T15:03:13;24.60;99.90
2729;DHT22;1372;47.956;7.830;2022-07-29T15:05:49;24.60;99.90
2729;DHT22;1372;47.956;7.830;2022-07-29T15:08:18;24.60;99.90
2729;DHT22;1372;47.956;7.830;2022-07-29T15:10:47;24.70;99.90
2729;DHT22;1372;47.956;7.830;2022-07-29T15:13:20;24.80;99.90
2729;DHT22;1372;47.956;7.830;2022-07-29T15:15:48;24.80;99.90
2729;DHT22;1372;47.956;7.830;2022-07-29T15:18:37;24.70;99.90
2729;DHT22;1372;47.956;7.830;2022-07-29T15:21:25;24.70;99.90
2729;DHT22;1372;47.956;7.830;2022-07-29T15:24:14;24.60;99.90
2729;DHT22;1372;47.956;7.830;2022-07-29T15:26:43;24.60;99.90
2729;DHT22;1372;47.956;7.830;2022-07-29T15:29:14;24.60;99.90
2729;DHT22;1372;47.956;7.830;2022-07-29T15:31:43;24.70;99.90
2729;DHT22;1372;47.956;7.830;2022-07-29T15:34:12;24.80;99.90
2729;DHT22;1372;47.956;7.830;2022-07-29T15:36:41;24.90;99.90
2729;DHT22;1372;47.956;7.830;2022-07-29T15:39:19;25.00;99.90
2729;DHT22;1372;47.956;7.830;2022-07-29T15:42:08;25.00;99.90
2729;DHT22;1372;47.956;7.830;2022-07-29T15:44:53;25.10;99.90
2729;DHT22;1372;47.956;7.830;2022-07-29T15:47:26;25.00;99.90
2729;DHT22;1372;47.956;7.830;2022-07-29T15:49:59;25.00;99.90
2729;DHT22;1372;47.956;7.830;2022-07-29T15:52:31;25.00;99.90
2729;DHT22;1372;47.956;7.830;2022-07-29T15:54:59;24.90;99.90
2729;DHT22;1372;47.956;7.830;2022-07-29T15:57:28;25.00;99.90
2729;DHT22;1372;47.956;7.830;2022-07-29T15:59:58;25.10;99.90
2729;DHT22;1372;47.956;7.830;2022-07-29T16:02:27;25.20;99.90
2729;DHT22;1372;47.956;7.830;2022-07-29T16:04:56;25.40;99.90
2729;DHT22;1372;47.956;7.830;2022-07-29T16:07:25;25.50;99.90
2729;DHT22;1372;47.956;7.830;2022-07-29T16:10:17;25.60;99.90
2729;DHT22;1372;47.956;7.830;2022-07-29T16:12:45;25.80;99.90
2729;DHT22;1372;47.956;7.830;2022-07-29T16:15:16;26.00;99.90
2729;DHT22;1372;47.956;7.830;2022-07-29T16:17:45;26.40;99.90
2729;DHT22;1372;47.956;7.830;2022-07-29T16:20:19;26.50;99.90
2729;DHT22;1372;47.956;7.830;2022-07-29T16:22:48;26.80;99.90
2729;DHT22;1372;47.956;7.830;2022-07-29T16:25:19;27.00;99.90
2729;DHT22;1372;47.956;7.830;2022-07-29T16:27:58;27.10;99.90
2729;DHT22;1372;47.956;7.830;2022-07-29T16:30:30;27.20;99.90
2729;DHT22;1372;47.956;7.830;2022-07-29T16:32:59;27.20;99.90
2729;DHT22;1372;47.956;7.830;2022-07-29T16:35:34;27.10;99.90
2729;DHT22;1372;47.956;7.830;2022-07-29T16:38:06;27.10;99.90
2729;DHT22;1372;47.956;7.830;2022-07-29T16:40:35;27.10;99.90
2729;DHT22;1372;47.956;7.830;2022-07-29T16:43:08;27.10;99.90
2729;DHT22;1372;47.956;7.830;2022-07-29T16:45:58;27.10;99.90
2729;DHT22;1372;47.956;7.830;2022-07-29T16:48:28;27.10;99.90
2729;DHT22;1372;47.956;7.830;2022-07-29T16:50:57;27.00;99.90
2729;DHT22;1372;47.956;7.830;2022-07-29T16:53:26;27.00;99.90
2729;DHT22;1372;47.956;7.830;2022-07-29T16:55:56;27.00;99.90
2729;DHT22;1372;47.956;7.830;2022-07-29T16:58:25;26.90;99.90